Danville, Alabama
Current Conditions -  °F | °C
As of 10:55 PM on Sunday 21 Dec 2014 (Local Time) from KCMD Reporting Station
Overcast Overcast  
Wind Chill:   Ceiling: 800
Heat Index:   Visibility: 7mi
Dew Point:   Wind: 6mph
Humidity: 90%   Direction: 120°ESE
Pressure: 30.04"   Gusts: NA
Location:  34.41°N, 87.08°W
Report Text: KCMD 220455Z AUTO 12005KT 7SM OVC008 09/08 A3004 RMK AO2 T00900075
Loading
Personal Weather Stations






























Interactive Weather Map New forecast layout! Learn more

10-Day Weather Forecast

Advertisements
Track Severe Weather on mobile